Time;durP1;ratioP1;P1;durP2;ratioP2;P2;SDS_P1;SDS_P2;PMS_P1;PMS_P2;Temp;Humidity;BMP_temperature;BMP_pressure;BME280_temperature;BME280_humidity;BME280_pressure;Samples;Min_cycle;Max_cycle;Signal;HPM_P1;HPM_P2
2021/09/29 00:00:37;;;;;;;2.33;0.90;;;;;;;;;;5078980;28;20128;-81
2021/09/29 00:03:04;;;;;;;1.52;0.65;;;;;;;;;;5079069;28;20089;-81
2021/09/29 00:05:30;;;;;;;1.80;0.73;;;;;;;;;;5069204;28;20553;-81
2021/09/29 00:07:57;;;;;;;2.25;0.88;;;;;;;;;;5072070;28;20048;-81
2021/09/29 00:10:23;;;;;;;1.40;0.60;;;;;;;;;;5075151;28;20056;-82
2021/09/29 00:12:49;;;;;;;3.30;0.90;;;;;;;;;;5072070;28;20120;-80
2021/09/29 00:15:17;;;;;;;2.08;0.80;;;;;;;;;;5081636;28;20444;-81
2021/09/29 00:17:46;;;;;;;1.23;0.60;;;;;;;;;;5082897;28;20179;-83
2021/09/29 00:20:13;;;;;;;1.98;0.70;;;;;;;;;;5085874;28;20429;-82
2021/09/29 00:22:41;;;;;;;1.73;0.60;;;;;;;;;;5078317;28;20063;-81
2021/09/29 00:25:08;;;;;;;2.83;0.85;;;;;;;;;;5084392;28;20113;-82
2021/09/29 00:27:35;;;;;;;2.20;0.80;;;;;;;;;;5066840;28;20032;-79
2021/09/29 00:30:07;;;;;;;4.43;0.90;;;;;;;;;;5090720;28;20044;-82
2021/09/29 00:32:35;;;;;;;2.13;0.80;;;;;;;;;;5084437;28;20032;-81
2021/09/29 00:35:01;;;;;;;2.28;0.60;;;;;;;;;;5046095;28;20095;-82
2021/09/29 00:37:28;;;;;;;2.10;0.60;;;;;;;;;;5061650;28;20110;-82
2021/09/29 00:39:55;;;;;;;4.03;1.00;;;;;;;;;;5069536;28;20063;-82
2021/09/29 00:42:21;;;;;;;1.80;0.75;;;;;;;;;;5061357;28;20067;-82
2021/09/29 00:44:47;;;;;;;2.03;0.80;;;;;;;;;;5049331;28;20512;-82
2021/09/29 00:47:14;;;;;;;1.95;0.70;;;;;;;;;;5050087;28;20060;-82
2021/09/29 00:49:40;;;;;;;2.50;0.80;;;;;;;;;;5068711;28;20457;-82
2021/09/29 00:52:06;;;;;;;2.42;0.70;;;;;;;;;;5085183;28;20047;-81
2021/09/29 00:54:33;;;;;;;1.67;0.70;;;;;;;;;;5082546;28;20063;-81
2021/09/29 00:56:59;;;;;;;3.33;1.00;;;;;;;;;;5070616;28;21966;-81
2021/09/29 00:59:27;;;;;;;2.35;0.60;;;;;;;;;;5067292;28;20028;-81
2021/09/29 01:01:54;;;;;;;1.38;0.70;;;;;;;;;;5076929;28;20160;-81
2021/09/29 01:04:22;;;;;;;2.08;0.63;;;;;;;;;;5056202;28;20052;-81
2021/09/29 01:06:54;;;;;;;2.42;0.80;;;;;;;;;;5081276;28;20063;-82
2021/09/29 01:09:24;;;;;;;4.30;1.00;;;;;;;;;;5072516;28;20055;-83
2021/09/29 01:12:00;;;;;;;1.50;0.60;;;;;;;;;;5064898;28;20063;-80
2021/09/29 01:14:46;;;;;;;1.65;0.70;;;;;;;;;;5077388;28;20146;-81
2021/09/29 01:17:15;;;;;;;2.92;0.70;;;;;;;;;;5079537;28;21577;-82
2021/09/29 01:19:44;;;;;;;2.97;0.73;;;;;;;;;;5083477;28;20051;-82
2021/09/29 01:22:23;;;;;;;2.70;0.73;;;;;;;;;;5062571;28;20064;-82
2021/09/29 01:24:56;;;;;;;4.65;0.80;;;;;;;;;;5082787;28;20076;-82
2021/09/29 01:27:23;;;;;;;3.35;0.82;;;;;;;;;;5066497;28;20445;-82
2021/09/29 01:29:51;;;;;;;1.95;0.68;;;;;;;;;;5071021;28;20125;-81
2021/09/29 01:32:20;;;;;;;1.80;0.77;;;;;;;;;;5049485;28;20060;-81
2021/09/29 01:34:47;;;;;;;2.13;0.80;;;;;;;;;;5078266;28;20052;-81
2021/09/29 01:37:14;;;;;;;2.22;0.88;;;;;;;;;;5088495;28;20581;-81
2021/09/29 01:39:41;;;;;;;1.55;0.65;;;;;;;;;;5087580;28;20063;-81
2021/09/29 01:42:07;;;;;;;2.15;0.70;;;;;;;;;;5079253;28;20640;-81
2021/09/29 01:44:34;;;;;;;2.00;0.70;;;;;;;;;;5057682;28;20438;-82
2021/09/29 01:47:00;;;;;;;2.15;0.70;;;;;;;;;;5056231;28;20064;-82
2021/09/29 01:49:42;;;;;;;1.92;0.70;;;;;;;;;;5073665;28;20089;-82
2021/09/29 01:52:08;;;;;;;;;;;;;;;;;;5074163;28;20024;-82
2021/09/29 01:54:38;;;;;;;3.50;0.88;;;;;;;;;;5065023;28;19916;-81
2021/09/29 01:57:04;;;;;;;3.40;0.95;;;;;;;;;;5075008;28;20226;-82
2021/09/29 01:59:31;;;;;;;1.92;0.60;;;;;;;;;;5068725;28;20577;-82
2021/09/29 02:01:57;;;;;;;1.90;0.60;;;;;;;;;;5076396;28;20089;-82
2021/09/29 02:04:24;;;;;;;3.70;0.85;;;;;;;;;;5064499;28;20068;-82
2021/09/29 02:06:52;;;;;;;1.60;0.75;;;;;;;;;;5057429;28;20732;-82
2021/09/29 02:09:19;;;;;;;2.88;0.90;;;;;;;;;;5065770;28;20068;-84
2021/09/29 02:11:46;;;;;;;2.20;0.75;;;;;;;;;;5078647;28;20140;-82
2021/09/29 02:14:20;;;;;;;3.22;0.90;;;;;;;;;;5068688;28;20032;-82
2021/09/29 02:16:47;;;;;;;2.83;0.90;;;;;;;;;;5084704;28;20067;-81
2021/09/29 02:19:13;;;;;;;2.17;0.75;;;;;;;;;;5068386;28;20068;-83
2021/09/29 02:21:41;;;;;;;1.33;0.70;;;;;;;;;;5049678;28;20040;-82
2021/09/29 02:24:08;;;;;;;2.42;0.80;;;;;;;;;;5063935;28;20389;-82
2021/09/29 02:26:35;;;;;;;1.70;0.90;;;;;;;;;;5074123;28;20519;-82
2021/09/29 02:29:01;;;;;;;3.53;0.80;;;;;;;;;;5068307;28;20086;-82
2021/09/29 02:31:28;;;;;;;1.63;0.70;;;;;;;;;;5067072;28;20498;-82
2021/09/29 02:33:55;;;;;;;1.52;0.65;;;;;;;;;;5069032;28;20064;-82
2021/09/29 02:36:21;;;;;;;1.55;0.60;;;;;;;;;;5071204;28;20122;-81
2021/09/29 02:38:51;;;;;;;1.60;0.75;;;;;;;;;;5066105;28;20064;-81
2021/09/29 02:41:19;;;;;;;2.05;0.85;;;;;;;;;;5070758;28;20656;-81
2021/09/29 02:43:46;;;;;;;1.75;0.70;;;;;;;;;;5082157;28;20084;-81
2021/09/29 02:46:12;;;;;;;1.92;0.90;;;;;;;;;;5088014;28;20556;-81
2021/09/29 02:48:39;;;;;;;2.50;0.65;;;;;;;;;;5084442;28;20073;-80
2021/09/29 02:51:05;;;;;;;3.30;0.77;;;;;;;;;;5071053;28;20043;-81
2021/09/29 02:53:32;;;;;;;1.95;0.80;;;;;;;;;;5076773;28;20060;-81
2021/09/29 02:55:59;;;;;;;2.65;0.80;;;;;;;;;;5086572;28;20051;-82
2021/09/29 02:58:25;;;;;;;1.77;0.80;;;;;;;;;;5085538;28;20067;-81
2021/09/29 03:00:53;;;;;;;2.60;0.80;;;;;;;;;;5084469;28;20063;-81
2021/09/29 03:03:20;;;;;;;3.55;0.80;;;;;;;;;;5081273;28;20079;-81
2021/09/29 03:05:47;;;;;;;4.68;0.90;;;;;;;;;;5075270;28;20052;-81
2021/09/29 03:08:13;;;;;;;1.73;0.77;;;;;;;;;;5087566;28;20117;-81
2021/09/29 03:10:41;;;;;;;3.38;0.88;;;;;;;;;;5085768;28;20059;-81
2021/09/29 03:13:11;;;;;;;2.03;0.90;;;;;;;;;;5084406;28;20077;-82
2021/09/29 03:15:37;;;;;;;3.08;0.70;;;;;;;;;;5079729;28;20576;-80
2021/09/29 03:18:04;;;;;;;1.67;0.68;;;;;;;;;;5083047;28;20133;-82
2021/09/29 03:20:31;;;;;;;2.90;0.77;;;;;;;;;;5085354;28;20566;-82
2021/09/29 03:22:58;;;;;;;1.75;0.98;;;;;;;;;;5061138;28;20376;-80
2021/09/29 03:25:24;;;;;;;2.13;0.90;;;;;;;;;;5084513;28;20056;-82
2021/09/29 03:27:51;;;;;;;1.92;0.70;;;;;;;;;;5083604;28;20591;-84
2021/09/29 03:30:17;;;;;;;2.83;0.95;;;;;;;;;;5079681;28;20063;-83
2021/09/29 03:32:44;;;;;;;1.42;0.55;;;;;;;;;;5082303;28;20043;-83
2021/09/29 03:35:11;;;;;;;1.38;0.63;;;;;;;;;;5083700;28;20108;-83
2021/09/29 03:37:39;;;;;;;1.98;0.60;;;;;;;;;;5068004;28;20460;-83
2021/09/29 03:40:07;;;;;;;2.05;0.55;;;;;;;;;;5065943;28;20557;-83
2021/09/29 03:42:33;;;;;;;1.60;0.77;;;;;;;;;;5084775;28;20100;-82
2021/09/29 03:45:00;;;;;;;1.80;0.70;;;;;;;;;;5081623;28;20436;-82
2021/09/29 03:47:26;;;;;;;1.55;0.70;;;;;;;;;;5049686;28;20060;-82
2021/09/29 03:49:53;;;;;;;3.17;0.80;;;;;;;;;;5083508;28;20121;-84
2021/09/29 03:52:19;;;;;;;1.85;0.90;;;;;;;;;;5069532;28;20070;-86
2021/09/29 03:54:46;;;;;;;2.33;0.73;;;;;;;;;;5066583;28;20056;-84
2021/09/29 03:57:12;;;;;;;2.13;0.75;;;;;;;;;;5065543;28;20118;-84
2021/09/29 03:59:39;;;;;;;1.75;0.85;;;;;;;;;;5045581;28;20525;-84
2021/09/29 04:02:05;;;;;;;1.40;0.70;;;;;;;;;;5065441;28;20370;-84
2021/09/29 04:04:31;;;;;;;2.25;0.90;;;;;;;;;;5066017;28;20053;-84
2021/09/29 04:06:58;;;;;;;2.00;0.73;;;;;;;;;;5062809;28;20056;-85
2021/09/29 04:09:25;;;;;;;3.03;0.80;;;;;;;;;;5065858;28;20040;-83
2021/09/29 04:11:51;;;;;;;1.90;0.60;;;;;;;;;;5061282;28;20051;-86
2021/09/29 04:14:18;;;;;;;2.25;0.80;;;;;;;;;;5067676;28;20508;-84
2021/09/29 04:16:47;;;;;;;1.08;0.70;;;;;;;;;;5073225;28;20060;-82
2021/09/29 04:19:14;;;;;;;1.40;0.80;;;;;;;;;;5068067;28;20040;-83
2021/09/29 04:21:42;;;;;;;2.63;0.80;;;;;;;;;;5085373;28;20078;-82
2021/09/29 04:24:11;;;;;;;1.38;0.52;;;;;;;;;;5084534;28;20048;-82
2021/09/29 04:26:38;;;;;;;1.38;0.70;;;;;;;;;;5082891;28;20136;-82
2021/09/29 04:29:05;;;;;;;2.05;0.70;;;;;;;;;;5063617;28;20071;-84
2021/09/29 04:31:31;;;;;;;2.40;0.82;;;;;;;;;;5085275;28;20127;-83
2021/09/29 04:33:58;;;;;;;2.15;0.80;;;;;;;;;;5069565;28;20036;-84
2021/09/29 04:36:25;;;;;;;1.90;0.80;;;;;;;;;;5092853;27;20059;-81
2021/09/29 04:38:51;;;;;;;1.20;0.70;;;;;;;;;;5090638;27;20082;-83
2021/09/29 04:41:18;;;;;;;2.35;0.70;;;;;;;;;;5088534;28;20052;-84
2021/09/29 04:43:44;;;;;;;3.15;0.85;;;;;;;;;;5088589;27;20523;-82
2021/09/29 04:46:11;;;;;;;1.60;0.80;;;;;;;;;;5074077;28;20448;-80
2021/09/29 04:48:37;;;;;;;2.47;0.80;;;;;;;;;;5090691;27;20500;-79
2021/09/29 04:51:04;;;;;;;3.20;0.90;;;;;;;;;;5092431;27;20845;-79
2021/09/29 04:53:30;;;;;;;1.30;0.60;;;;;;;;;;5092023;27;20109;-79
2021/09/29 04:55:59;;;;;;;1.48;0.93;;;;;;;;;;5090466;27;20086;-79
2021/09/29 04:58:29;;;;;;;1.23;0.55;;;;;;;;;;5091616;28;20071;-79
2021/09/29 05:00:55;;;;;;;2.08;0.70;;;;;;;;;;5090452;27;21432;-79
2021/09/29 05:03:23;;;;;;;2.38;0.75;;;;;;;;;;5088965;27;20050;-78
2021/09/29 05:05:49;;;;;;;1.85;0.60;;;;;;;;;;5088798;27;20056;-78
2021/09/29 05:08:20;;;;;;;1.10;0.60;;;;;;;;;;5077954;28;20056;-79
2021/09/29 05:10:53;;;;;;;2.17;0.90;;;;;;;;;;5074304;27;20110;-78
2021/09/29 05:13:25;;;;;;;1.20;0.60;;;;;;;;;;5066841;28;20052;-78
2021/09/29 05:15:52;;;;;;;2.15;0.95;;;;;;;;;;5070783;28;20409;-78
2021/09/29 05:18:19;;;;;;;1.42;0.80;;;;;;;;;;5073101;28;20072;-79
2021/09/29 05:20:46;;;;;;;1.40;0.60;;;;;;;;;;5072967;28;20082;-77
2021/09/29 05:23:12;;;;;;;1.40;0.77;;;;;;;;;;5080157;28;20068;-79
2021/09/29 05:25:39;;;;;;;1.75;0.80;;;;;;;;;;5082233;28;20507;-78
2021/09/29 05:28:11;;;;;;;1.40;0.60;;;;;;;;;;5066615;28;20037;-78
2021/09/29 05:30:38;;;;;;;1.83;0.70;;;;;;;;;;5078256;28;20370;-77
2021/09/29 05:33:04;;;;;;;1.70;0.90;;;;;;;;;;5075094;28;20085;-78
2021/09/29 05:35:32;;;;;;;1.20;0.60;;;;;;;;;;5083427;28;20040;-79
2021/09/29 05:37:58;;;;;;;1.50;0.70;;;;;;;;;;5081649;28;20877;-78
2021/09/29 05:40:25;;;;;;;1.60;0.77;;;;;;;;;;5086718;28;20064;-78
2021/09/29 05:42:51;;;;;;;2.17;0.70;;;;;;;;;;5081297;28;20109;-79
2021/09/29 05:45:17;;;;;;;2.13;0.60;;;;;;;;;;5073163;28;20052;-79
2021/09/29 05:47:44;;;;;;;2.28;0.82;;;;;;;;;;5074045;28;20675;-80
2021/09/29 05:50:11;;;;;;;1.38;0.65;;;;;;;;;;5066265;28;20496;-80
2021/09/29 05:52:37;;;;;;;1.83;1.00;;;;;;;;;;5060361;28;20780;-79
2021/09/29 05:55:04;;;;;;;1.58;0.95;;;;;;;;;;5070749;28;20075;-79
2021/09/29 05:57:31;;;;;;;2.20;0.80;;;;;;;;;;5070083;28;20044;-79
2021/09/29 05:59:59;;;;;;;1.27;0.70;;;;;;;;;;5064073;28;20040;-79
2021/09/29 06:02:26;;;;;;;2.30;0.77;;;;;;;;;;5079726;28;20056;-79
2021/09/29 06:04:52;;;;;;;1.58;0.82;;;;;;;;;;5069541;28;20060;-79
2021/09/29 06:07:19;;;;;;;2.33;0.90;;;;;;;;;;5086697;28;20456;-79
2021/09/29 06:09:45;;;;;;;3.28;0.90;;;;;;;;;;5086819;28;20072;-79
2021/09/29 06:12:12;;;;;;;1.92;0.77;;;;;;;;;;5086255;28;20056;-79
2021/09/29 06:14:40;;;;;;;1.52;0.70;;;;;;;;;;5083708;28;20678;-78
2021/09/29 06:17:22;;;;;;;2.35;0.90;;;;;;;;;;5081974;28;20056;-79
2021/09/29 06:19:49;;;;;;;1.38;0.70;;;;;;;;;;5081576;28;20604;-79
2021/09/29 06:22:15;;;;;;;2.53;0.82;;;;;;;;;;5088170;28;20070;-79
2021/09/29 06:24:42;;;;;;;2.25;0.70;;;;;;;;;;5074154;28;20064;-78
2021/09/29 06:27:09;;;;;;;1.75;0.80;;;;;;;;;;5061479;28;20492;-79
2021/09/29 06:29:38;;;;;;;1.83;0.70;;;;;;;;;;5086417;28;20074;-79
2021/09/29 06:32:04;;;;;;;1.77;0.85;;;;;;;;;;5081871;28;20035;-79
2021/09/29 06:34:31;;;;;;;2.25;0.82;;;;;;;;;;5087108;28;20048;-79
2021/09/29 06:36:57;;;;;;;2.13;0.75;;;;;;;;;;5069013;28;20036;-78
2021/09/29 06:39:24;;;;;;;1.17;0.60;;;;;;;;;;5088342;28;20072;-78
2021/09/29 06:41:50;;;;;;;2.42;0.90;;;;;;;;;;5085617;28;20154;-79
2021/09/29 06:44:17;;;;;;;2.60;0.90;;;;;;;;;;5086753;28;20064;-78
2021/09/29 06:46:43;;;;;;;1.70;0.80;;;;;;;;;;5083555;28;20146;-78
2021/09/29 06:49:10;;;;;;;1.50;0.80;;;;;;;;;;5079736;28;20479;-78
2021/09/29 06:51:36;;;;;;;1.98;0.80;;;;;;;;;;5087273;28;20064;-78
2021/09/29 06:54:03;;;;;;;1.85;0.90;;;;;;;;;;5079865;28;20395;-79
2021/09/29 06:56:29;;;;;;;1.65;1.00;;;;;;;;;;5067158;28;20052;-78
2021/09/29 06:58:55;;;;;;;1.35;0.70;;;;;;;;;;5082915;28;20060;-78
2021/09/29 07:01:22;;;;;;;1.52;0.80;;;;;;;;;;5082049;28;20459;-79
2021/09/29 07:03:50;;;;;;;1.65;0.75;;;;;;;;;;5084943;28;20485;-79
2021/09/29 07:06:16;;;;;;;2.15;0.75;;;;;;;;;;5084283;28;20072;-80
2021/09/29 07:08:43;;;;;;;1.67;0.88;;;;;;;;;;5082911;28;20482;-79
2021/09/29 07:11:10;;;;;;;2.40;1.05;;;;;;;;;;5087340;28;20750;-79
2021/09/29 07:13:36;;;;;;;2.03;0.90;;;;;;;;;;5086298;28;20064;-78
2021/09/29 07:16:03;;;;;;;1.98;0.90;;;;;;;;;;5046883;28;20056;-78
2021/09/29 07:18:31;;;;;;;2.17;0.95;;;;;;;;;;5067738;28;20068;-78
2021/09/29 07:20:58;;;;;;;3.33;1.10;;;;;;;;;;5051999;28;20064;-78
2021/09/29 07:23:24;;;;;;;1.60;0.80;;;;;;;;;;5068233;28;20067;-78
2021/09/29 07:25:51;;;;;;;1.63;0.82;;;;;;;;;;5085896;28;20055;-78
2021/09/29 07:28:18;;;;;;;1.33;0.70;;;;;;;;;;5087564;28;20048;-77
2021/09/29 07:30:45;;;;;;;2.45;0.90;;;;;;;;;;5082495;28;20162;-77
2021/09/29 07:33:13;;;;;;;1.50;0.85;;;;;;;;;;5089072;28;20060;-78
2021/09/29 07:35:41;;;;;;;1.63;0.75;;;;;;;;;;5077053;28;20072;-77
2021/09/29 07:38:08;;;;;;;2.03;0.88;;;;;;;;;;5069434;28;20056;-77
2021/09/29 07:40:35;;;;;;;1.58;0.80;;;;;;;;;;5060450;28;20056;-77
2021/09/29 07:43:01;;;;;;;3.08;0.90;;;;;;;;;;5067143;28;20056;-78
2021/09/29 07:45:28;;;;;;;1.80;0.80;;;;;;;;;;5066906;28;20074;-78
2021/09/29 07:47:55;;;;;;;1.48;0.77;;;;;;;;;;5066970;28;20060;-78
2021/09/29 07:50:22;;;;;;;1.42;0.60;;;;;;;;;;5067256;28;20495;-78
2021/09/29 07:52:49;;;;;;;1.58;0.88;;;;;;;;;;5074270;28;20064;-78
2021/09/29 07:55:15;;;;;;;1.65;0.80;;;;;;;;;;5079955;28;20059;-79
2021/09/29 07:57:43;;;;;;;1.40;0.75;;;;;;;;;;5086288;28;20056;-78
2021/09/29 08:00:10;;;;;;;1.42;0.80;;;;;;;;;;5084392;28;20056;-79
2021/09/29 08:02:37;;;;;;;1.45;0.80;;;;;;;;;;5086963;28;20075;-78
2021/09/29 08:05:04;;;;;;;2.25;0.95;;;;;;;;;;5080471;28;20417;-78
2021/09/29 08:07:31;;;;;;;1.73;0.80;;;;;;;;;;5073164;28;20067;-78
2021/09/29 08:09:57;;;;;;;1.58;0.98;;;;;;;;;;5077045;28;20067;-79
2021/09/29 08:12:24;;;;;;;2.40;0.90;;;;;;;;;;5086284;28;20052;-78
2021/09/29 08:14:52;;;;;;;1.73;0.80;;;;;;;;;;5076006;28;20056;-77
2021/09/29 08:17:18;;;;;;;1.55;0.70;;;;;;;;;;5072144;28;20074;-77
2021/09/29 08:19:45;;;;;;;1.95;1.00;;;;;;;;;;5079826;28;20063;-77
2021/09/29 08:22:12;;;;;;;1.67;0.90;;;;;;;;;;5084065;28;20060;-76
2021/09/29 08:24:47;;;;;;;1.90;0.75;;;;;;;;;;5084304;28;20501;-77
2021/09/29 08:27:25;;;;;;;1.15;0.70;;;;;;;;;;5061315;28;20058;-78
2021/09/29 08:32:37;;;;;;;2.58;1.00;;;;;;;;;;5085325;28;20503;-77
2021/09/29 08:35:23;;;;;;;2.60;1.00;;;;;;;;;;5073530;28;20064;-77
2021/09/29 08:37:57;;;;;;;1.70;0.80;;;;;;;;;;5081648;28;20044;-77
2021/09/29 08:43:27;;;;;;;2.55;0.90;;;;;;;;;;5068555;28;20540;-77
2021/09/29 08:46:01;;;;;;;1.00;0.75;;;;;;;;;;5067098;28;20090;-77
2021/09/29 08:48:37;;;;;;;1.88;0.90;;;;;;;;;;5086038;28;20060;-78
2021/09/29 08:53:55;;;;;;;2.75;0.90;;;;;;;;;;5064018;28;20342;-77
2021/09/29 09:18:12;;;;;;;2.60;0.90;;;;;;;;;;5081199;28;20054;-77
2021/09/29 09:20:46;;;;;;;1.85;0.75;;;;;;;;;;5087399;28;20089;-77
2021/09/29 09:23:13;;;;;;;1.88;0.77;;;;;;;;;;5068761;28;20548;-76
2021/09/29 09:25:39;;;;;;;1.75;0.68;;;;;;;;;;5081994;28;20048;-77
2021/09/29 09:28:06;;;;;;;1.67;0.70;;;;;;;;;;5087178;28;20056;-77
2021/09/29 09:30:34;;;;;;;1.48;0.80;;;;;;;;;;5090421;28;20052;-77
2021/09/29 09:33:00;;;;;;;2.05;0.80;;;;;;;;;;5087215;28;20490;-77
2021/09/29 09:35:29;;;;;;;1.88;0.98;;;;;;;;;;5087388;28;20052;-76
2021/09/29 09:37:57;;;;;;;0.80;0.60;;;;;;;;;;5089708;28;20456;-77
2021/09/29 09:40:25;;;;;;;1.75;0.80;;;;;;;;;;5088031;28;20036;-77
2021/09/29 09:42:56;;;;;;;1.42;0.90;;;;;;;;;;5088281;28;20060;-77
2021/09/29 09:45:33;;;;;;;1.55;0.80;;;;;;;;;;5089306;28;20435;-77
2021/09/29 09:48:00;;;;;;;1.50;0.90;;;;;;;;;;5087041;28;20081;-77
2021/09/29 09:50:27;;;;;;;2.30;0.85;;;;;;;;;;5087420;28;20028;-78
2021/09/29 09:52:54;;;;;;;2.45;0.77;;;;;;;;;;5084767;28;20061;-77
2021/09/29 09:55:23;;;;;;;2.40;0.90;;;;;;;;;;5074168;28;20110;-77
2021/09/29 09:57:57;;;;;;;1.33;0.90;;;;;;;;;;5056457;28;20072;-77
2021/09/29 10:00:28;;;;;;;2.55;0.73;;;;;;;;;;5081446;28;20060;-77
2021/09/29 10:02:55;;;;;;;;;;;;;;;;;;5087359;28;20053;-78
2021/09/29 10:05:23;;;;;;;5.93;3.78;;;;;;;;;;5086994;28;20299;-77
2021/09/29 10:07:50;;;;;;;8.60;3.17;;;;;;;;;;5086985;28;20032;-78
2021/09/29 10:10:53;;;;;;;7.78;4.43;;;;;;;;;;5084822;28;20109;-78
2021/09/29 10:27:12;;;;;;;4.78;2.70;;;;;;;;;;5086063;28;20055;-78
2021/09/29 10:29:41;;;;;;;4.13;2.60;;;;;;;;;;5079599;28;21067;-77
2021/09/29 10:32:20;;;;;;;3.92;2.65;;;;;;;;;;5082477;28;20064;-78
2021/09/29 10:34:59;;;;;;;5.57;2.17;;;;;;;;;;5082002;28;20029;-78
2021/09/29 10:37:50;;;;;;;3.95;2.17;;;;;;;;;;5079454;28;20068;-78
2021/09/29 10:40:53;;;;;;;4.68;2.22;;;;;;;;;;5068345;28;20117;-78
2021/09/29 10:43:05;;;;;;;3.40;2.20;;;;;;;;;;5063217;28;20052;-78
2021/09/29 11:31:57;;;;;;;3.25;1.20;;;;;;;;;;5084379;28;20061;-76
2021/09/29 11:34:27;;;;;;;2.20;1.20;;;;;;;;;;5084290;28;20082;-77
2021/09/29 12:10:48;;;;;;;2.63;1.20;;;;;;;;;;5057902;28;20197;-76
2021/09/29 12:13:15;;;;;;;2.08;1.02;;;;;;;;;;5074055;28;20126;-76
2021/09/29 12:15:45;;;;;;;1.58;1.00;;;;;;;;;;5066340;28;20032;-77
2021/09/29 12:18:13;;;;;;;1.45;0.82;;;;;;;;;;5068532;28;20032;-78
2021/09/29 12:20:49;;;;;;;1.95;1.00;;;;;;;;;;5069674;28;20300;-78
2021/09/29 12:23:17;;;;;;;1.55;0.98;;;;;;;;;;5065198;28;20036;-78
2021/09/29 12:25:52;;;;;;;2.17;1.20;;;;;;;;;;5067283;28;20104;-77
2021/09/29 12:36:28;;;;;;;1.83;1.00;;;;;;;;;;5087269;28;20079;-77
2021/09/29 12:38:54;;;;;;;1.88;0.77;;;;;;;;;;5084558;28;20122;-77
2021/09/29 12:41:23;;;;;;;1.05;0.60;;;;;;;;;;5081363;28;20062;-76
2021/09/29 12:44:00;;;;;;;1.83;0.90;;;;;;;;;;5072523;28;20040;-77
2021/09/29 12:46:26;;;;;;;2.13;0.98;;;;;;;;;;5078836;28;20117;-79
2021/09/29 12:48:52;;;;;;;0.63;0.50;;;;;;;;;;5058617;28;20772;-78
2021/09/29 12:51:20;;;;;;;1.52;0.70;;;;;;;;;;5092737;28;20067;-77
2021/09/29 12:53:57;;;;;;;1.75;0.88;;;;;;;;;;5066773;28;20056;-77
2021/09/29 12:56:25;;;;;;;1.13;0.70;;;;;;;;;;5080936;28;20052;-76
2021/09/29 12:58:51;;;;;;;1.80;0.70;;;;;;;;;;5075509;28;20510;-78
2021/09/29 13:01:18;;;;;;;1.27;0.80;;;;;;;;;;5074844;28;20075;-78
2021/09/29 13:03:44;;;;;;;1.30;0.80;;;;;;;;;;5046133;28;20557;-78
2021/09/29 13:06:12;;;;;;;1.73;0.80;;;;;;;;;;5084757;28;20044;-78
2021/09/29 13:08:38;;;;;;;3.20;1.00;;;;;;;;;;5079577;28;20064;-78
2021/09/29 13:11:05;;;;;;;0.82;0.57;;;;;;;;;;5051569;28;20060;-78
2021/09/29 13:13:34;;;;;;;2.17;0.88;;;;;;;;;;5066836;28;20438;-78
2021/09/29 13:16:02;;;;;;;2.45;0.80;;;;;;;;;;5060145;27;20041;-78
2021/09/29 13:24:23;;;;;;;2.17;0.70;;;;;;;;;;5028860;28;20049;-77
2021/09/29 13:38:06;;;;;;;1.23;0.60;;;;;;;;;;5068291;28;19912;-78
2021/09/29 13:40:33;;;;;;;1.48;0.80;;;;;;;;;;5070103;28;20130;-78
2021/09/29 13:43:01;;;;;;;1.42;0.60;;;;;;;;;;5068092;28;20082;-78
2021/09/29 13:45:28;;;;;;;1.83;0.68;;;;;;;;;;5068376;28;20062;-78
2021/09/29 13:47:54;;;;;;;3.35;0.80;;;;;;;;;;5088853;28;20028;-78
2021/09/29 13:50:20;;;;;;;1.08;0.65;;;;;;;;;;5089401;28;20531;-78
2021/09/29 13:52:47;;;;;;;0.82;0.50;;;;;;;;;;5065882;28;20508;-78
2021/09/29 13:55:18;;;;;;;1.95;0.70;;;;;;;;;;5072219;28;20032;-78
2021/09/29 13:58:07;;;;;;;1.23;0.70;;;;;;;;;;5087192;28;20083;-78
2021/09/29 14:00:59;;;;;;;1.95;0.80;;;;;;;;;;5086369;28;20076;-82
2021/09/29 14:30:33;;;;;;;10.70;1.00;;;;;;;;;;5066510;28;20074;-77
2021/09/29 14:33:05;;;;;;;2.80;1.20;;;;;;;;;;5059989;28;20075;-78
2021/09/29 14:35:32;;;;;;;1.13;0.77;;;;;;;;;;5082914;28;20205;-78
2021/09/29 14:37:59;;;;;;;3.38;1.02;;;;;;;;;;5050656;28;20082;-79
2021/09/29 14:40:25;;;;;;;2.75;1.02;;;;;;;;;;5072359;28;20044;-78
2021/09/29 14:42:52;;;;;;;3.50;1.13;;;;;;;;;;5069920;28;20109;-78
2021/09/29 14:45:19;;;;;;;3.33;0.80;;;;;;;;;;5080542;28;20068;-78
2021/09/29 14:47:46;;;;;;;3.50;1.02;;;;;;;;;;5068969;28;20060;-77
2021/09/29 14:50:13;;;;;;;3.33;1.00;;;;;;;;;;5066934;28;20070;-78
2021/09/29 14:52:39;;;;;;;1.63;0.90;;;;;;;;;;5066553;28;20077;-77
2021/09/29 14:55:06;;;;;;;2.75;1.20;;;;;;;;;;5068735;28;20051;-77
2021/09/29 14:57:32;;;;;;;3.58;1.38;;;;;;;;;;5082468;28;20024;-80
2021/09/29 14:59:59;;;;;;;3.22;1.00;;;;;;;;;;5067340;28;20072;-80
2021/09/29 15:02:25;;;;;;;3.90;1.20;;;;;;;;;;5080020;28;20056;-79
2021/09/29 15:04:51;;;;;;;2.00;1.20;;;;;;;;;;5080856;28;20055;-80
2021/09/29 15:07:18;;;;;;;2.33;1.20;;;;;;;;;;5086334;28;20051;-80
2021/09/29 15:09:44;;;;;;;3.63;1.58;;;;;;;;;;5085212;28;20444;-80
2021/09/29 15:12:11;;;;;;;3.05;1.38;;;;;;;;;;5085962;28;20039;-81
2021/09/29 15:17:19;;;;;;;2.78;1.35;;;;;;;;;;5085861;28;20063;-82
2021/09/29 15:24:44;;;;;;;4.00;1.40;;;;;;;;;;5085839;28;20508;-81
2021/09/29 15:48:29;;;;;;;2.95;1.40;;;;;;;;;;5091111;28;20502;-80
2021/09/29 15:54:05;;;;;;;3.05;1.67;;;;;;;;;;5078367;28;20373;-81
2021/09/29 16:02:05;;;;;;;1.98;1.30;;;;;;;;;;5090444;28;20050;-81
2021/09/29 16:07:20;;;;;;;2.65;1.77;;;;;;;;;;5090334;28;20024;-80
2021/09/29 16:12:54;;;;;;;2.67;1.50;;;;;;;;;;5091107;28;20032;-82
2021/09/29 16:31:21;;;;;;;2.95;1.70;;;;;;;;;;5078989;28;20359;-81
2021/09/29 16:34:01;;;;;;;2.38;1.63;;;;;;;;;;5090270;28;20040;-81
2021/09/29 16:36:27;;;;;;;4.20;1.80;;;;;;;;;;5091998;28;20055;-82
2021/09/29 16:38:54;;;;;;;3.42;1.90;;;;;;;;;;5090104;28;20036;-81
2021/09/29 16:41:21;;;;;;;2.58;1.70;;;;;;;;;;5094439;28;20040;-81
2021/09/29 16:43:48;;;;;;;2.90;1.70;;;;;;;;;;5095335;28;20484;-84
2021/09/29 16:46:16;;;;;;;3.70;2.00;;;;;;;;;;5089842;28;20029;-84
2021/09/29 16:48:43;;;;;;;3.33;2.10;;;;;;;;;;5096674;28;20024;-85
2021/09/29 16:53:49;;;;;;;2.78;1.80;;;;;;;;;;5086680;28;20522;-85
2021/09/29 16:56:16;;;;;;;3.30;2.05;;;;;;;;;;5078171;28;20024;-86
2021/09/29 16:58:53;;;;;;;2.97;2.03;;;;;;;;;;5074292;28;20074;-84
2021/09/29 17:01:19;;;;;;;4.05;2.20;;;;;;;;;;5088076;28;20071;-85
2021/09/29 17:03:46;;;;;;;3.50;2.17;;;;;;;;;;5081679;28;20040;-85
2021/09/29 17:06:14;;;;;;;4.13;2.03;;;;;;;;;;5094718;28;20044;-85
2021/09/29 17:08:40;;;;;;;3.95;2.05;;;;;;;;;;5091077;28;20035;-80
2021/09/29 17:11:09;;;;;;;3.00;1.80;;;;;;;;;;5096480;28;20028;-85
2021/09/29 17:13:40;;;;;;;3.38;1.83;;;;;;;;;;5076394;28;20031;-85
2021/09/29 17:16:14;;;;;;;2.67;1.90;;;;;;;;;;5068563;28;20113;-85
2021/09/29 17:18:44;;;;;;;3.20;2.00;;;;;;;;;;5070705;28;20052;-82
2021/09/29 17:21:14;;;;;;;3.38;2.17;;;;;;;;;;5085079;28;20067;-84
2021/09/29 17:23:41;;;;;;;3.42;2.03;;;;;;;;;;5078233;28;20044;-81
2021/09/29 17:26:08;;;;;;;2.95;2.08;;;;;;;;;;5084339;28;20484;-83
2021/09/29 17:28:35;;;;;;;2.50;2.10;;;;;;;;;;5088383;28;20044;-83
2021/09/29 17:31:05;;;;;;;3.60;2.42;;;;;;;;;;5088966;28;20032;-83
2021/09/29 17:52:25;;;;;;;3.72;2.33;;;;;;;;;;5088117;28;21381;-84
2021/09/29 17:54:52;;;;;;;3.67;2.03;;;;;;;;;;5069780;28;20036;-79
2021/09/29 17:57:19;;;;;;;4.38;2.70;;;;;;;;;;5097050;28;20032;-82
2021/09/29 17:59:48;;;;;;;4.10;2.92;;;;;;;;;;5090440;28;20048;-83
2021/09/29 18:02:26;;;;;;;4.82;3.15;;;;;;;;;;5095025;28;20059;-82
2021/09/29 18:04:55;;;;;;;5.10;2.78;;;;;;;;;;5085008;27;20077;-82
2021/09/29 18:09:51;;;;;;;3.80;2.58;;;;;;;;;;5081411;28;20558;-82
2021/09/29 18:12:23;;;;;;;3.78;2.30;;;;;;;;;;5090789;28;20029;-83
2021/09/29 18:14:50;;;;;;;4.30;2.70;;;;;;;;;;5059489;28;20090;-83
2021/09/29 18:17:16;;;;;;;4.32;2.53;;;;;;;;;;5068499;28;20401;-83
2021/09/29 18:19:43;;;;;;;3.50;2.35;;;;;;;;;;5062494;28;20032;-82
2021/09/29 18:22:11;;;;;;;3.83;2.63;;;;;;;;;;5086699;28;20033;-84
2021/09/29 18:24:37;;;;;;;4.13;2.95;;;;;;;;;;5074820;28;20037;-85
2021/09/29 18:27:04;;;;;;;3.67;2.38;;;;;;;;;;5078011;28;20028;-85
2021/09/29 18:29:31;;;;;;;3.72;2.30;;;;;;;;;;5057682;28;20055;-85
2021/09/29 18:31:58;;;;;;;3.50;2.53;;;;;;;;;;5076519;28;20037;-84
2021/09/29 18:34:27;;;;;;;3.38;2.40;;;;;;;;;;5097132;27;20470;-84
2021/09/29 18:36:55;;;;;;;4.03;2.53;;;;;;;;;;5050373;28;20047;-84
2021/09/29 18:39:23;;;;;;;3.40;2.67;;;;;;;;;;5049284;28;20028;-85
2021/09/29 18:41:49;;;;;;;3.47;2.55;;;;;;;;;;5067768;28;20033;-82
2021/09/29 18:44:18;;;;;;;3.55;2.40;;;;;;;;;;5049287;28;20043;-84
2021/09/29 18:46:45;;;;;;;3.67;2.83;;;;;;;;;;5071898;28;20141;-84
2021/09/29 18:49:14;;;;;;;3.92;2.30;;;;;;;;;;5093139;28;20037;-83
2021/09/29 18:51:43;;;;;;;3.75;2.75;;;;;;;;;;5058890;28;20041;-84
2021/09/29 19:09:39;;;;;;;3.45;2.60;;;;;;;;;;5087179;28;20486;-83
2021/09/29 19:12:08;;;;;;;4.20;3.20;;;;;;;;;;5068584;28;20093;-82
2021/09/29 19:14:36;;;;;;;4.25;3.20;;;;;;;;;;5086741;28;20040;-84
2021/09/29 19:17:03;;;;;;;3.95;3.05;;;;;;;;;;5067621;28;20032;-83
2021/09/29 19:19:31;;;;;;;3.60;2.80;;;;;;;;;;5067065;28;20064;-85
2021/09/29 19:21:57;;;;;;;4.80;2.97;;;;;;;;;;5070714;28;20089;-82
2021/09/29 19:24:24;;;;;;;4.00;2.78;;;;;;;;;;5067400;28;20045;-81